createdAt,value
2022-10-21T00:02:28.690Z,18.60
2022-10-21T00:04:56.382Z,18.54
2022-10-21T00:07:24.089Z,18.68
2022-10-21T00:09:51.767Z,18.54
2022-10-21T00:12:19.485Z,18.56
2022-10-21T00:14:47.228Z,18.56
2022-10-21T00:17:14.919Z,18.65
2022-10-21T00:19:44.019Z,18.64
2022-10-21T00:22:11.921Z,18.63
2022-10-21T00:24:39.586Z,18.59
2022-10-21T00:27:07.918Z,18.59
2022-10-21T00:29:35.830Z,18.49
2022-10-21T00:32:03.584Z,18.54
2022-10-21T00:34:32.360Z,18.58
2022-10-21T00:37:01.457Z,18.53
2022-10-21T00:39:29.220Z,18.53
2022-10-21T00:41:56.970Z,18.43
2022-10-21T00:44:27.545Z,18.58
2022-10-21T00:46:59.337Z,18.53
2022-10-21T00:49:35.643Z,18.60
2022-10-21T00:52:09.001Z,18.50
2022-10-21T00:54:38.871Z,18.64
2022-10-21T00:57:07.537Z,18.49
2022-10-21T00:59:43.257Z,18.57
2022-10-21T01:02:11.213Z,18.60
2022-10-21T01:04:39.104Z,18.58
2022-10-21T01:07:08.305Z,18.44
2022-10-21T01:09:36.150Z,18.48
2022-10-21T01:12:05.149Z,18.57
2022-10-21T01:14:44.509Z,18.68
2022-10-21T01:17:40.392Z,18.56
2022-10-21T01:20:47.066Z,18.57
2022-10-21T01:23:53.987Z,18.48
2022-10-21T01:26:53.961Z,18.48
2022-10-21T01:29:52.882Z,18.57
2022-10-21T01:32:29.355Z,18.60
2022-10-21T01:35:02.961Z,18.56
2022-10-21T01:37:41.608Z,18.65
2022-10-21T01:40:16.106Z,18.64
2022-10-21T01:42:51.855Z,18.64
2022-10-21T01:45:25.610Z,18.49
2022-10-21T01:47:57.119Z,18.57
2022-10-21T01:50:27.485Z,18.44
2022-10-21T01:53:07.061Z,18.28
2022-10-21T01:55:36.444Z,18.35
2022-10-21T01:58:06.516Z,18.60
2022-10-21T02:00:36.177Z,18.44
2022-10-21T02:03:08.378Z,18.27
2022-10-21T02:05:37.142Z,18.57
2022-10-21T02:08:05.843Z,18.62
2022-10-21T02:10:37.043Z,18.42
2022-10-21T02:13:07.431Z,18.37
2022-10-21T02:15:36.130Z,18.33
2022-10-21T02:18:08.006Z,18.28
2022-10-21T02:20:40.033Z,18.51
2022-10-21T02:23:09.807Z,18.63
2022-10-21T02:25:41.752Z,18.56
2022-10-21T02:28:10.028Z,18.52
2022-10-21T02:30:46.037Z,18.35
2022-10-21T02:33:21.374Z,18.23
2022-10-21T02:35:59.502Z,18.32
2022-10-21T02:38:30.702Z,18.30
2022-10-21T02:41:03.240Z,18.19
2022-10-21T02:43:34.555Z,18.22
2022-10-21T02:46:08.543Z,18.27
2022-10-21T02:48:40.005Z,18.21
2022-10-21T02:51:09.214Z,18.21
2022-10-21T02:53:37.446Z,18.28
2022-10-21T02:56:05.841Z,18.29
2022-10-21T02:58:33.860Z,18.28
2022-10-21T03:01:02.262Z,18.25
2022-10-21T03:03:30.552Z,18.24
2022-10-21T03:05:59.805Z,18.20
2022-10-21T03:08:27.526Z,18.30
2022-10-21T03:10:55.596Z,18.29
2022-10-21T03:13:23.776Z,18.27
2022-10-21T03:15:52.118Z,18.40
2022-10-21T03:18:20.008Z,18.46
2022-10-21T03:20:50.635Z,18.41
2022-10-21T03:23:20.570Z,18.36
2022-10-21T03:25:48.813Z,18.27
2022-10-21T03:28:16.500Z,18.27
2022-10-21T03:30:44.296Z,18.46
2022-10-21T03:33:12.105Z,18.32
2022-10-21T03:35:39.853Z,18.27
2022-10-21T03:38:07.529Z,18.27
2022-10-21T03:40:36.604Z,18.13
2022-10-21T03:43:04.517Z,18.17
2022-10-21T03:45:32.265Z,18.01
2022-10-21T03:47:59.924Z,17.93
2022-10-21T03:50:27.784Z,17.92
2022-10-21T03:52:56.293Z,17.92
2022-10-21T03:55:25.226Z,17.94
2022-10-21T03:57:54.739Z,17.95
2022-10-21T04:00:23.216Z,17.92
2022-10-21T04:02:51.474Z,17.87
2022-10-21T04:05:19.407Z,17.92
2022-10-21T04:07:50.698Z,17.95
2022-10-21T04:10:21.206Z,17.98
2022-10-21T04:12:48.896Z,18.02
2022-10-21T04:15:18.097Z,18.09
2022-10-21T04:17:47.230Z,18.12
2022-10-21T04:20:15.296Z,18.10
2022-10-21T04:22:42.989Z,18.09
2022-10-21T04:25:10.926Z,18.13
2022-10-21T04:27:38.689Z,18.19
2022-10-21T04:30:07.710Z,18.11
2022-10-21T04:32:37.181Z,18.18
2022-10-21T04:35:05.822Z,18.08
2022-10-21T04:37:33.666Z,18.12
2022-10-21T04:40:01.332Z,18.23
2022-10-21T04:42:29.105Z,18.07
2022-10-21T04:44:56.906Z,17.99
2022-10-21T04:47:24.605Z,17.88
2022-10-21T04:49:53.710Z,17.80
2022-10-21T04:52:21.405Z,17.85
2022-10-21T04:54:49.140Z,17.84
2022-10-21T04:57:16.841Z,17.83
2022-10-21T04:59:44.628Z,17.80
2022-10-21T05:02:13.634Z,17.75
2022-10-21T05:04:41.413Z,17.64
2022-10-21T05:07:11.908Z,17.52
2022-10-21T05:09:39.585Z,17.57
2022-10-21T05:12:07.269Z,17.48
2022-10-21T05:14:35.035Z,17.59
2022-10-21T05:17:02.801Z,17.69
2022-10-21T05:19:31.504Z,17.73
2022-10-21T05:21:59.739Z,17.68
2022-10-21T05:24:29.150Z,17.70
2022-10-21T05:26:56.964Z,17.74
2022-10-21T05:29:24.701Z,17.74
2022-10-21T05:31:52.393Z,17.62
2022-10-21T05:34:20.362Z,17.44
2022-10-21T05:36:48.978Z,17.49
2022-10-21T05:39:17.026Z,17.33
2022-10-21T05:41:47.991Z,17.35
2022-10-21T05:44:16.395Z,17.27
2022-10-21T05:46:44.119Z,17.24
2022-10-21T05:49:12.826Z,17.44
2022-10-21T05:51:40.584Z,17.24
2022-10-21T05:54:08.271Z,17.10
2022-10-21T05:56:36.022Z,17.05
2022-10-21T05:59:07.862Z,17.11
2022-10-21T06:01:37.889Z,17.07
2022-10-21T06:04:06.224Z,17.06
2022-10-21T06:06:33.980Z,17.08
2022-10-21T06:09:02.005Z,17.10
2022-10-21T06:11:29.798Z,17.15
2022-10-21T06:13:57.577Z,17.12
2022-10-21T06:16:26.673Z,17.05
2022-10-21T06:18:54.413Z,17.12
2022-10-21T06:21:22.105Z,17.19
2022-10-21T06:23:53.349Z,17.44
2022-10-21T06:26:21.069Z,17.49
2022-10-21T06:28:48.753Z,17.41
2022-10-21T06:31:18.682Z,17.47
2022-10-21T06:33:47.745Z,17.27
2022-10-21T06:36:15.496Z,17.32
2022-10-21T06:38:43.256Z,17.41
2022-10-21T06:41:13.881Z,17.05
2022-10-21T06:43:42.336Z,17.38
2022-10-21T06:46:11.961Z,17.21
2022-10-21T06:48:39.726Z,17.24
2022-10-21T06:51:14.882Z,17.29
2022-10-21T06:53:43.325Z,17.24
2022-10-21T06:56:13.145Z,17.30
2022-10-21T06:58:43.331Z,17.44
2022-10-21T07:01:27.281Z,17.38
2022-10-21T07:04:01.235Z,17.43
2022-10-21T07:06:30.572Z,17.50
2022-10-21T07:08:59.086Z,17.64
2022-10-21T07:11:27.632Z,17.52
2022-10-21T07:13:56.044Z,17.63
2022-10-21T07:16:26.251Z,18.00
2022-10-21T07:18:55.087Z,17.91
2022-10-21T07:21:24.489Z,17.84
2022-10-21T07:23:56.660Z,18.00
2022-10-21T07:26:29.167Z,18.12
2022-10-21T07:28:58.731Z,18.20
2022-10-21T07:31:26.661Z,18.20
2022-10-21T07:33:55.110Z,18.28
2022-10-21T07:36:25.716Z,18.33
2022-10-21T07:38:56.585Z,18.35
2022-10-21T07:41:27.076Z,18.42
2022-10-21T07:43:55.473Z,18.29
2022-10-21T07:46:23.963Z,18.50
2022-10-21T07:48:52.472Z,18.33
2022-10-21T07:51:25.717Z,18.49
2022-10-21T07:53:59.500Z,18.51
2022-10-21T07:56:29.508Z,18.64
2022-10-21T07:58:58.284Z,18.70
2022-10-21T08:01:27.121Z,18.82
2022-10-21T08:03:56.351Z,18.74
2022-10-21T08:06:25.358Z,18.79
2022-10-21T08:08:55.978Z,18.92
2022-10-21T08:11:26.530Z,18.81
2022-10-21T08:13:56.368Z,18.71
2022-10-21T08:16:24.677Z,18.81
2022-10-21T08:18:53.323Z,19.10
2022-10-21T08:21:22.245Z,19.36
2022-10-21T08:23:50.038Z,19.51
2022-10-21T08:26:17.928Z,19.35
2022-10-21T08:28:47.130Z,19.20
2022-10-21T08:31:17.779Z,19.05
2022-10-21T08:33:46.029Z,19.16
2022-10-21T08:36:15.462Z,19.65
2022-10-21T08:38:43.173Z,19.97
2022-10-21T08:41:32.267Z,19.80
2022-10-21T08:44:06.037Z,19.48
2022-10-21T08:46:37.257Z,19.52
2022-10-21T08:49:11.033Z,19.66
2022-10-21T08:51:42.951Z,19.72
2022-10-21T08:54:16.057Z,19.60
2022-10-21T08:56:43.777Z,19.44
2022-10-21T08:59:21.796Z,19.59
2022-10-21T09:01:55.774Z,19.62
2022-10-21T09:04:36.084Z,19.60
2022-10-21T09:07:14.843Z,19.59
2022-10-21T09:09:50.141Z,19.64
2022-10-21T09:12:27.015Z,19.50
2022-10-21T09:15:20.538Z,19.50
2022-10-21T09:18:03.654Z,20.07
2022-10-21T09:20:42.127Z,20.04
2022-10-21T09:23:29.723Z,20.09
2022-10-21T09:26:01.967Z,20.24
2022-10-21T09:28:31.647Z,20.18
2022-10-21T09:31:03.864Z,19.99
2022-10-21T09:33:34.817Z,19.95
2022-10-21T09:36:07.115Z,20.24
2022-10-21T09:38:43.438Z,19.78
2022-10-21T09:41:17.966Z,19.99
2022-10-21T09:43:45.983Z,19.75
2022-10-21T09:46:16.541Z,19.96
2022-10-21T09:49:16.406Z,20.08
2022-10-21T09:51:40.192Z,20.61
2022-10-21T09:54:13.104Z,20.41
2022-10-21T09:56:46.165Z,20.63
2022-10-21T09:59:16.360Z,20.29
2022-10-21T10:01:47.275Z,20.19
2022-10-21T10:04:22.606Z,20.51
2022-10-21T10:06:50.543Z,20.76
2022-10-21T10:09:27.329Z,21.20
2022-10-21T10:11:57.345Z,20.83
2022-10-21T10:14:32.156Z,21.12
2022-10-21T10:17:28.843Z,20.72
2022-10-21T10:20:13.125Z,20.30
2022-10-21T10:22:43.082Z,20.87
2022-10-21T10:25:21.480Z,20.87
2022-10-21T10:27:51.090Z,20.96
2022-10-21T10:30:19.335Z,21.13
2022-10-21T10:32:50.369Z,21.47
2022-10-21T10:35:31.472Z,21.30
2022-10-21T10:38:02.313Z,21.20
2022-10-21T10:40:34.090Z,21.08
2022-10-21T10:43:07.107Z,21.28
2022-10-21T10:45:36.051Z,21.12
2022-10-21T10:48:07.152Z,21.66
2022-10-21T10:50:42.942Z,21.79
2022-10-21T10:53:31.396Z,21.15
2022-10-21T10:56:07.184Z,21.74
2022-10-21T10:58:37.665Z,22.14
2022-10-21T11:01:13.830Z,21.68
2022-10-21T11:03:51.986Z,21.75
2022-10-21T11:06:28.668Z,21.30
2022-10-21T11:08:59.616Z,21.21
2022-10-21T11:11:31.066Z,21.72
2022-10-21T11:17:01.976Z,21.43
2022-10-21T11:19:43.334Z,21.55
2022-10-21T11:22:21.941Z,21.96
2022-10-21T11:25:04.630Z,21.55
2022-10-21T11:27:52.293Z,21.84
2022-10-21T11:30:22.332Z,21.19
2022-10-21T11:33:04.220Z,21.51
2022-10-21T11:35:48.201Z,21.34
2022-10-21T11:38:30.888Z,21.55
2022-10-21T11:41:07.730Z,21.47
2022-10-21T11:43:45.610Z,21.30
2022-10-21T11:46:21.937Z,21.32
2022-10-21T11:49:26.837Z,21.67
2022-10-21T11:52:04.698Z,21.30
2022-10-21T11:55:08.273Z,21.31
2022-10-21T11:57:47.094Z,21.42
2022-10-21T12:00:20.009Z,21.74
2022-10-21T12:03:11.699Z,21.70
2022-10-21T12:05:48.126Z,22.10
2022-10-21T12:08:23.099Z,22.19
2022-10-21T12:10:55.636Z,21.14
2022-10-21T12:13:27.508Z,21.38
2022-10-21T12:15:59.253Z,22.06
2022-10-21T12:18:29.409Z,21.64
2022-10-21T12:20:58.326Z,22.02
2022-10-21T12:23:30.926Z,22.11
2022-10-21T12:26:13.962Z,22.44
2022-10-21T12:28:45.761Z,22.49
2022-10-21T12:31:36.447Z,21.86
2022-10-21T12:34:05.283Z,22.14
2022-10-21T12:36:42.766Z,22.22
2022-10-21T12:39:39.182Z,22.41
2022-10-21T12:42:13.858Z,22.70
2022-10-21T12:44:46.619Z,22.69
2022-10-21T12:47:27.014Z,22.09
2022-10-21T12:50:20.447Z,21.96
2022-10-21T12:53:06.108Z,21.82
2022-10-21T12:55:40.077Z,22.36
2022-10-21T12:58:23.424Z,22.83
2022-10-21T13:00:55.717Z,22.44
2022-10-21T13:03:53.359Z,21.81
2022-10-21T13:06:52.743Z,22.26
2022-10-21T13:09:39.273Z,21.76
2022-10-21T13:12:30.262Z,21.58
2022-10-21T13:15:01.728Z,21.75
2022-10-21T13:17:47.187Z,21.66
2022-10-21T13:20:47.547Z,22.04
2022-10-21T13:23:39.615Z,22.88
2022-10-21T13:26:15.566Z,23.36
2022-10-21T13:28:54.939Z,22.87
2022-10-21T13:31:25.068Z,22.24
2022-10-21T13:33:55.267Z,22.19
2022-10-21T13:39:23.370Z,22.62
2022-10-21T13:42:00.849Z,23.05
2022-10-21T13:44:34.278Z,22.04
2022-10-21T13:47:26.758Z,22.57
2022-10-21T13:49:56.223Z,22.12
2022-10-21T13:52:28.535Z,22.18
2022-10-21T13:55:00.936Z,22.64
2022-10-21T13:57:33.594Z,22.57
2022-10-21T14:00:03.285Z,22.64
2022-10-21T14:02:32.442Z,22.10
2022-10-21T14:05:00.189Z,21.60
2022-10-21T14:07:28.842Z,22.16
2022-10-21T14:09:59.322Z,22.25
2022-10-21T14:12:30.251Z,21.91
2022-10-21T14:15:02.936Z,21.48
2022-10-21T14:17:32.869Z,21.57
2022-10-21T14:20:07.858Z,21.41
2022-10-21T14:22:35.980Z,21.76
2022-10-21T14:25:04.477Z,21.55
2022-10-21T14:27:34.603Z,21.62
2022-10-21T14:30:04.678Z,21.73
2022-10-21T14:32:34.705Z,21.60
2022-10-21T14:35:07.139Z,21.79
2022-10-21T14:37:37.222Z,22.34
2022-10-21T14:40:12.992Z,22.00
2022-10-21T14:42:42.288Z,21.87
2022-10-21T14:45:17.382Z,22.44
2022-10-21T14:47:52.543Z,22.24
2022-10-21T14:50:22.963Z,22.16
2022-10-21T14:52:53.285Z,21.61
2022-10-21T14:55:29.904Z,21.90
2022-10-21T14:58:04.760Z,21.66
2022-10-21T15:00:36.999Z,22.02
2022-10-21T15:03:06.192Z,21.92
2022-10-21T15:05:41.403Z,22.19
2022-10-21T15:08:32.042Z,21.94
2022-10-21T15:11:23.288Z,21.89
2022-10-21T15:14:05.959Z,21.92
2022-10-21T15:19:10.534Z,21.28
2022-10-21T15:21:46.278Z,21.50
2022-10-21T15:24:19.383Z,21.46
2022-10-21T15:26:48.253Z,21.04
2022-10-21T15:29:29.245Z,21.09
2022-10-21T15:31:58.679Z,21.31
2022-10-21T15:34:28.366Z,21.44
2022-10-21T15:36:56.413Z,21.34
2022-10-21T15:39:24.190Z,21.03
2022-10-21T15:41:54.979Z,20.84
2022-10-21T15:44:26.778Z,21.06
2022-10-21T15:47:00.393Z,21.07
2022-10-21T15:49:33.991Z,20.87
2022-10-21T15:52:02.540Z,21.30
2022-10-21T15:54:30.386Z,21.13
2022-10-21T15:56:59.976Z,21.03
2022-10-21T15:59:28.850Z,21.58
2022-10-21T16:01:57.752Z,21.45
2022-10-21T16:04:25.895Z,21.59
2022-10-21T16:06:56.001Z,21.33
2022-10-21T16:09:26.484Z,20.96
2022-10-21T16:12:00.747Z,21.04
2022-10-21T16:14:30.806Z,21.12
2022-10-21T16:17:00.254Z,20.99
2022-10-21T16:19:28.198Z,21.04
2022-10-21T16:21:57.724Z,21.17
2022-10-21T16:24:25.669Z,21.22
2022-10-21T16:26:53.464Z,20.95
2022-10-21T16:29:24.183Z,20.84
2022-10-21T16:31:52.276Z,20.64
2022-10-21T16:34:20.875Z,20.55
2022-10-21T16:36:48.946Z,20.50
2022-10-21T16:39:20.635Z,20.73
2022-10-21T16:41:48.335Z,20.43
2022-10-21T16:44:16.077Z,20.28
2022-10-21T16:46:50.478Z,20.30
2022-10-21T16:49:21.869Z,20.37
2022-10-21T16:51:50.024Z,20.50
2022-10-21T16:54:20.183Z,20.28
2022-10-21T16:56:47.867Z,20.30
2022-10-21T16:59:15.785Z,20.03
2022-10-21T17:01:43.757Z,20.22
2022-10-21T17:04:14.319Z,20.35
2022-10-21T17:06:42.346Z,20.28
2022-10-21T17:09:10.204Z,20.53
2022-10-21T17:11:42.275Z,20.41
2022-10-21T17:14:15.642Z,20.15
2022-10-21T17:16:44.277Z,20.31
2022-10-21T17:19:12.609Z,19.83
2022-10-21T17:21:40.334Z,19.65
2022-10-21T17:24:08.268Z,19.52
2022-10-21T17:26:36.665Z,19.95
2022-10-21T17:29:05.727Z,19.80
2022-10-21T17:31:33.584Z,19.90
2022-10-21T17:34:06.349Z,19.73
2022-10-21T17:36:34.362Z,19.76
2022-10-21T17:39:02.620Z,19.50
2022-10-21T17:41:30.518Z,19.78
2022-10-21T17:43:58.219Z,20.04
2022-10-21T17:46:27.319Z,19.87
2022-10-21T17:48:58.219Z,19.84
2022-10-21T17:51:26.806Z,19.60
2022-10-21T17:53:55.410Z,19.28
2022-10-21T17:56:23.844Z,19.55
2022-10-21T17:58:52.809Z,19.42
2022-10-21T18:01:22.059Z,19.74
2022-10-21T18:03:51.149Z,19.75
2022-10-21T18:06:19.531Z,19.99
2022-10-21T18:08:48.005Z,19.34
2022-10-21T18:11:18.240Z,19.68
2022-10-21T18:13:46.722Z,19.97
2022-10-21T18:16:17.301Z,19.70
2022-10-21T18:18:46.447Z,19.48
2022-10-21T18:21:17.832Z,19.52
2022-10-21T18:23:47.885Z,19.52
2022-10-21T18:26:19.272Z,19.69
2022-10-21T18:28:50.349Z,19.73
2022-10-21T18:31:20.193Z,19.54
2022-10-21T18:33:47.991Z,19.33
2022-10-21T18:36:18.769Z,19.29
2022-10-21T18:38:46.588Z,19.77
2022-10-21T18:41:20.215Z,19.70
2022-10-21T18:43:50.045Z,19.69
2022-10-21T18:46:18.573Z,19.89
2022-10-21T18:48:46.263Z,19.44
2022-10-21T18:51:16.531Z,19.41
2022-10-21T18:53:48.527Z,19.41
2022-10-21T18:56:19.714Z,19.61
2022-10-21T18:58:47.482Z,19.68
2022-10-21T19:01:15.954Z,19.04
2022-10-21T19:03:43.761Z,18.85
2022-10-21T19:06:19.805Z,18.82
2022-10-21T19:08:49.011Z,19.03
2022-10-21T19:11:16.771Z,18.98
2022-10-21T19:13:44.516Z,18.32
2022-10-21T19:16:12.254Z,17.93
2022-10-21T19:18:40.119Z,17.85
2022-10-21T19:21:08.074Z,18.17
2022-10-21T19:23:35.831Z,18.28
2022-10-21T19:26:06.280Z,18.17
2022-10-21T19:28:34.908Z,18.16
2022-10-21T19:31:02.922Z,17.98
2022-10-21T19:33:31.162Z,18.10
2022-10-21T19:36:00.802Z,18.15
2022-10-21T19:38:43.227Z,17.86
2022-10-21T19:41:15.889Z,17.71
2022-10-21T19:43:44.214Z,17.52
2022-10-21T19:46:18.937Z,17.55
2022-10-21T19:48:49.416Z,17.55
2022-10-21T19:51:19.086Z,17.72
2022-10-21T19:53:47.828Z,17.60
2022-10-21T19:56:20.910Z,17.48
2022-10-21T19:58:51.859Z,17.68
2022-10-21T20:01:21.481Z,17.16
2022-10-21T20:03:50.669Z,17.44
2022-10-21T20:06:23.741Z,17.46
2022-10-21T20:08:51.679Z,17.94
2022-10-21T20:11:22.111Z,18.06
2022-10-21T20:13:50.731Z,18.11
2022-10-21T20:16:21.881Z,17.98
2022-10-21T20:18:50.176Z,17.84
2022-10-21T20:21:18.706Z,17.74
2022-10-21T20:23:46.864Z,17.76
2022-10-21T20:26:14.607Z,17.42
2022-10-21T20:28:43.839Z,17.11
2022-10-21T20:31:13.730Z,17.21
2022-10-21T20:33:43.730Z,17.68
2022-10-21T20:36:13.834Z,17.70
2022-10-21T20:38:41.697Z,17.31
2022-10-21T20:41:12.131Z,17.53
2022-10-21T20:43:41.705Z,17.45
2022-10-21T20:46:13.692Z,17.57
2022-10-21T20:48:42.703Z,17.72
2022-10-21T20:51:13.005Z,17.57
2022-10-21T20:53:44.847Z,17.64
2022-10-21T20:56:12.727Z,17.86
2022-10-21T20:58:41.590Z,17.83
2022-10-21T21:01:12.493Z,17.76
2022-10-21T21:03:42.653Z,17.47
2022-10-21T21:06:11.429Z,17.64
2022-10-21T21:08:48.645Z,17.76
2022-10-21T21:11:22.204Z,17.92
2022-10-21T21:13:49.961Z,17.85
2022-10-21T21:16:20.997Z,18.18
2022-10-21T21:18:52.698Z,18.24
2022-10-21T21:21:22.505Z,18.41
2022-10-21T21:23:50.489Z,17.54
2022-10-21T21:26:20.249Z,18.02
2022-10-21T21:28:48.195Z,18.01
2022-10-21T21:31:16.561Z,18.07
2022-10-21T21:33:46.386Z,18.20
2022-10-21T21:36:14.980Z,18.25
2022-10-21T21:38:43.213Z,18.16
2022-10-21T21:41:11.719Z,17.87
2022-10-21T21:43:41.448Z,18.25
2022-10-21T21:46:09.224Z,18.04
2022-10-21T21:48:37.339Z,18.39
2022-10-21T21:51:10.086Z,18.32
2022-10-21T21:53:38.653Z,18.13
2022-10-21T21:56:09.126Z,18.09
2022-10-21T21:58:36.909Z,18.27
2022-10-21T22:01:12.733Z,18.43
2022-10-21T22:03:40.616Z,17.73
2022-10-21T22:06:10.074Z,17.89
2022-10-21T22:08:40.090Z,17.79
2022-10-21T22:11:09.592Z,17.81
2022-10-21T22:13:38.588Z,17.81
2022-10-21T22:16:07.508Z,17.96
2022-10-21T22:18:35.726Z,18.09
2022-10-21T22:21:05.493Z,17.88
2022-10-21T22:23:35.057Z,17.96
2022-10-21T22:26:02.913Z,17.74
2022-10-21T22:28:30.592Z,18.03
2022-10-21T22:31:01.510Z,18.12
2022-10-21T22:33:30.339Z,18.43
2022-10-21T22:35:58.061Z,18.42
2022-10-21T22:38:26.017Z,18.29
2022-10-21T22:40:55.933Z,18.32
2022-10-21T22:43:23.721Z,18.27
2022-10-21T22:45:51.402Z,18.11
2022-10-21T22:48:19.522Z,18.06
2022-10-21T22:50:47.348Z,18.06
2022-10-21T22:53:15.650Z,18.19
2022-10-21T22:55:43.706Z,18.16
2022-10-21T22:58:16.303Z,18.12
2022-10-21T23:00:44.397Z,18.08
2022-10-21T23:03:12.243Z,17.98
2022-10-21T23:05:40.003Z,18.04
2022-10-21T23:08:07.674Z,18.12
2022-10-21T23:10:35.417Z,17.72
2022-10-21T23:13:05.303Z,18.00
2022-10-21T23:15:35.624Z,17.81
2022-10-21T23:18:03.995Z,18.00
2022-10-21T23:20:31.787Z,18.13
2022-10-21T23:22:59.979Z,18.16
2022-10-21T23:25:28.054Z,17.83
2022-10-21T23:27:56.081Z,17.76
2022-10-21T23:30:24.178Z,17.67
2022-10-21T23:32:53.221Z,17.81
2022-10-21T23:35:21.192Z,17.96
2022-10-21T23:37:48.857Z,17.94
2022-10-21T23:40:16.598Z,18.07
2022-10-21T23:42:44.298Z,18.02
2022-10-21T23:45:12.848Z,18.15
2022-10-21T23:47:40.844Z,18.19
2022-10-21T23:50:11.313Z,18.19
2022-10-21T23:52:39.495Z,18.10
2022-10-21T23:55:08.360Z,18.19
2022-10-21T23:57:36.499Z,18.01
